Time;durP1;ratioP1;P1;durP2;ratioP2;P2;SDS_P1;SDS_P2;PMS_P1;PMS_P2;Temp;Humidity;BMP_temperature;BMP_pressure;BME280_temperature;BME280_humidity;BME280_pressure;Samples;Min_cycle;Max_cycle;Signal;HPM_P1;HPM_P2
2023/08/24 00:00:18;;;;;;;13.70;8.65;;;;;;;;;;6210112;23;20183;-94
2023/08/24 00:03:24;;;;;;;11.70;8.13;;;;;;;;;;6227210;23;20162;-92
2023/08/24 00:06:28;;;;;;;15.27;8.88;;;;;;;;;;6209289;23;20151;-93
2023/08/24 00:09:34;;;;;;;19.77;9.32;;;;;;;;;;6208651;23;20151;-92
2023/08/24 00:12:39;;;;;;;20.33;8.15;;;;;;;;;;6210761;23;20151;-91
2023/08/24 00:15:45;;;;;;;13.77;8.23;;;;;;;;;;6210084;23;20231;-93
2023/08/24 00:18:51;;;;;;;14.80;8.77;;;;;;;;;;6212129;23;20237;-91
2023/08/24 00:21:56;;;;;;;15.60;8.40;;;;;;;;;;6210449;23;20167;-93
2023/08/24 00:25:01;;;;;;;15.52;8.00;;;;;;;;;;6212088;23;20171;-93
2023/08/24 00:28:06;;;;;;;14.15;8.38;;;;;;;;;;6210777;23;20163;-93
2023/08/24 00:31:12;;;;;;;18.15;8.10;;;;;;;;;;6210206;23;20525;-91
2023/08/24 00:34:19;;;;;;;13.02;8.68;;;;;;;;;;6212522;23;20179;-92
2023/08/24 00:37:26;;;;;;;16.33;8.82;;;;;;;;;;6210224;23;20167;-92
2023/08/24 00:40:32;;;;;;;21.38;8.82;;;;;;;;;;6211169;23;20195;-93
2023/08/24 00:43:38;;;;;;;14.75;8.35;;;;;;;;;;6212158;23;20174;-92
2023/08/24 00:46:44;;;;;;;15.88;8.57;;;;;;;;;;6210819;23;20210;-93
2023/08/24 00:49:50;;;;;;;16.67;7.60;;;;;;;;;;6212054;23;20154;-94
2023/08/24 00:52:56;;;;;;;15.15;8.07;;;;;;;;;;6210672;23;20171;-93
2023/08/24 00:56:01;;;;;;;18.73;9.25;;;;;;;;;;6211976;23;20175;-93
2023/08/24 00:59:06;;;;;;;15.63;8.60;;;;;;;;;;6210296;23;20163;-92
2023/08/24 01:02:12;;;;;;;14.65;8.50;;;;;;;;;;6213329;23;20154;-92
2023/08/24 01:05:18;;;;;;;13.02;8.15;;;;;;;;;;6213768;23;20174;-91
2023/08/24 01:08:24;;;;;;;12.30;8.20;;;;;;;;;;6213421;23;20167;-92
2023/08/24 01:11:32;;;;;;;15.93;8.60;;;;;;;;;;6213327;23;20183;-93
2023/08/24 01:14:43;;;;;;;18.42;7.85;;;;;;;;;;6213158;23;20251;-92
2023/08/24 01:17:48;;;;;;;13.15;7.70;;;;;;;;;;6213015;23;20151;-92
2023/08/24 01:20:55;;;;;;;12.93;7.50;;;;;;;;;;6213493;23;20219;-91
2023/08/24 01:24:04;;;;;;;11.25;7.15;;;;;;;;;;6214496;23;20191;-92
2023/08/24 01:27:12;;;;;;;11.68;7.35;;;;;;;;;;6212991;23;20251;-92
2023/08/24 01:30:20;;;;;;;13.65;7.68;;;;;;;;;;6213650;23;20167;-94
2023/08/24 01:33:26;;;;;;;10.77;7.25;;;;;;;;;;6213348;23;20148;-93
2023/08/24 01:36:32;;;;;;;16.70;7.75;;;;;;;;;;6211965;23;20209;-92
2023/08/24 01:39:43;;;;;;;14.73;7.78;;;;;;;;;;6213746;23;20163;-93
2023/08/24 01:42:53;;;;;;;17.15;8.32;;;;;;;;;;6211435;23;20163;-94
2023/08/24 01:45:59;;;;;;;13.75;7.57;;;;;;;;;;6210894;23;20290;-93
2023/08/24 01:49:05;;;;;;;13.85;7.65;;;;;;;;;;6210851;23;20166;-93
2023/08/24 01:52:11;;;;;;;10.85;7.72;;;;;;;;;;6211781;23;20166;-92
2023/08/24 01:55:19;;;;;;;14.45;7.95;;;;;;;;;;6211150;23;20238;-93
2023/08/24 01:58:26;;;;;;;13.18;8.00;;;;;;;;;;6210815;23;20202;-93
2023/08/24 02:01:31;;;;;;;13.02;8.02;;;;;;;;;;6211784;23;20264;-93
2023/08/24 02:04:36;;;;;;;12.68;7.80;;;;;;;;;;6210638;23;20167;-92
2023/08/24 02:07:42;;;;;;;16.58;7.70;;;;;;;;;;6212049;23;20179;-92
2023/08/24 02:10:47;;;;;;;17.10;7.75;;;;;;;;;;6213108;23;20223;-92
2023/08/24 02:13:53;;;;;;;13.60;8.13;;;;;;;;;;6211320;23;20170;-94
2023/08/24 02:16:59;;;;;;;16.05;8.20;;;;;;;;;;6211804;23;20167;-91
2023/08/24 02:20:05;;;;;;;13.88;7.35;;;;;;;;;;6210108;23;20586;-92
2023/08/24 02:23:10;;;;;;;15.95;7.95;;;;;;;;;;6209844;23;20163;-93
2023/08/24 02:26:15;;;;;;;15.55;8.18;;;;;;;;;;6211343;23;20155;-93
2023/08/24 02:29:23;;;;;;;12.60;7.68;;;;;;;;;;6210685;23;20167;-92
2023/08/24 02:32:28;;;;;;;16.30;7.93;;;;;;;;;;6209414;23;20277;-92
2023/08/24 02:35:33;;;;;;;17.67;8.75;;;;;;;;;;6209206;23;20246;-94
2023/08/24 02:38:38;;;;;;;11.52;7.82;;;;;;;;;;6210979;23;20151;-93
2023/08/24 02:41:43;;;;;;;13.05;7.45;;;;;;;;;;6213278;23;20167;-94
2023/08/24 02:44:50;;;;;;;20.50;9.00;;;;;;;;;;6214199;23;20167;-92
2023/08/24 02:47:55;;;;;;;19.60;9.43;;;;;;;;;;6212129;23;20238;-92
2023/08/24 02:51:00;;;;;;;17.77;10.07;;;;;;;;;;6212504;23;20215;-93
2023/08/24 02:54:05;;;;;;;18.25;8.93;;;;;;;;;;6212472;23;20386;-93
2023/08/24 02:57:11;;;;;;;17.35;8.80;;;;;;;;;;6212207;23;20207;-90
2023/08/24 03:00:17;;;;;;;21.95;9.32;;;;;;;;;;6212484;23;20242;-93
2023/08/24 03:03:23;;;;;;;14.93;9.10;;;;;;;;;;6211781;23;20238;-92
2023/08/24 03:06:28;;;;;;;16.67;8.65;;;;;;;;;;6211453;23;20535;-93
2023/08/24 03:09:33;;;;;;;16.05;8.90;;;;;;;;;;6212164;23;20170;-93
2023/08/24 03:12:38;;;;;;;13.82;8.18;;;;;;;;;;6211993;23;20195;-93
2023/08/24 03:15:45;;;;;;;19.23;9.07;;;;;;;;;;6213400;23;20178;-92
2023/08/24 03:18:50;;;;;;;16.67;8.27;;;;;;;;;;6213443;23;20166;-92
2023/08/24 03:21:57;;;;;;;12.73;8.30;;;;;;;;;;6213482;23;20562;-92
2023/08/24 03:25:02;;;;;;;16.23;8.75;;;;;;;;;;6214002;23;20175;-94
2023/08/24 03:28:08;;;;;;;18.20;8.45;;;;;;;;;;6212818;23;20163;-93
2023/08/24 03:31:14;;;;;;;15.25;8.10;;;;;;;;;;6213614;23;20155;-92
2023/08/24 03:34:20;;;;;;;14.90;8.35;;;;;;;;;;6214172;23;20168;-92
2023/08/24 03:37:26;;;;;;;18.23;8.13;;;;;;;;;;6214490;23;20190;-94
2023/08/24 03:40:32;;;;;;;15.57;8.90;;;;;;;;;;6212070;23;20162;-93
2023/08/24 03:43:38;;;;;;;11.55;8.43;;;;;;;;;;6213075;23;20239;-94
2023/08/24 03:46:44;;;;;;;14.65;8.40;;;;;;;;;;6213595;23;20497;-93
2023/08/24 03:49:50;;;;;;;20.05;8.10;;;;;;;;;;6212942;23;20187;-93
2023/08/24 03:52:55;;;;;;;14.43;8.65;;;;;;;;;;6213974;23;20151;-94
2023/08/24 03:56:00;;;;;;;13.38;8.80;;;;;;;;;;6211956;23;20194;-92
2023/08/24 03:59:06;;;;;;;16.23;8.27;;;;;;;;;;6211564;23;20226;-92
2023/08/24 04:06:33;;;;;;;13.40;8.40;;;;;;;;;;6231302;23;20160;-92
2023/08/24 04:09:41;;;;;;;19.52;9.50;;;;;;;;;;6212843;23;20155;-93
2023/08/24 04:12:47;;;;;;;20.08;9.50;;;;;;;;;;6210198;23;20210;-93
2023/08/24 04:15:52;;;;;;;16.08;10.10;;;;;;;;;;6211504;23;20190;-93
2023/08/24 04:18:57;;;;;;;13.90;9.30;;;;;;;;;;6211943;23;20167;-92
2023/08/24 04:22:04;;;;;;;15.98;9.70;;;;;;;;;;6212947;23;20170;-91
2023/08/24 04:25:09;;;;;;;14.52;9.75;;;;;;;;;;6211500;23;20663;-91
2023/08/24 04:28:19;;;;;;;15.25;9.48;;;;;;;;;;6211169;23;20498;-91
2023/08/24 04:31:24;;;;;;;15.70;9.93;;;;;;;;;;6212144;23;20159;-93
2023/08/24 04:34:29;;;;;;;13.55;9.45;;;;;;;;;;6214293;23;20206;-92
2023/08/24 04:37:38;;;;;;;17.08;9.88;;;;;;;;;;6212890;23;20167;-92
2023/08/24 04:40:51;;;;;;;15.32;9.57;;;;;;;;;;6212104;23;20673;-92
2023/08/24 04:43:57;;;;;;;20.40;9.35;;;;;;;;;;6210952;23;20295;-92
2023/08/24 04:47:02;;;;;;;16.05;8.80;;;;;;;;;;6212395;23;20167;-91
2023/08/24 04:50:08;;;;;;;15.40;8.65;;;;;;;;;;6208345;23;20191;-92
2023/08/24 04:53:16;;;;;;;14.00;8.75;;;;;;;;;;6210928;23;20163;-92
2023/08/24 04:56:21;;;;;;;17.98;9.55;;;;;;;;;;6211442;23;20190;-91
2023/08/24 04:59:26;;;;;;;16.10;9.25;;;;;;;;;;6207371;23;20171;-92
2023/08/24 05:02:39;;;;;;;14.43;8.73;;;;;;;;;;6207846;23;20611;-91
2023/08/24 05:05:44;;;;;;;18.52;9.10;;;;;;;;;;6208581;23;20707;-91
2023/08/24 05:08:53;;;;;;;14.77;9.63;;;;;;;;;;6208260;23;20179;-92
2023/08/24 05:11:58;;;;;;;14.40;9.23;;;;;;;;;;6209533;23;20163;-92
2023/08/24 05:19:23;;;;;;;15.02;9.52;;;;;;;;;;6226960;23;20179;-91
2023/08/24 05:22:29;;;;;;;13.38;8.27;;;;;;;;;;6210312;23;20182;-90
2023/08/24 05:25:35;;;;;;;15.00;7.97;;;;;;;;;;6208414;23;20175;-90
2023/08/24 05:28:41;;;;;;;19.02;9.38;;;;;;;;;;6209507;23;20167;-89
2023/08/24 05:31:45;;;;;;;12.23;8.63;;;;;;;;;;6209360;23;20607;-89
2023/08/24 05:34:51;;;;;;;13.70;8.75;;;;;;;;;;6210223;23;20215;-90
2023/08/24 05:37:56;;;;;;;16.23;9.40;;;;;;;;;;6207618;23;20219;-91
2023/08/24 05:41:03;;;;;;;19.73;10.05;;;;;;;;;;6209726;23;20167;-89
2023/08/24 05:44:08;;;;;;;15.23;10.20;;;;;;;;;;6209973;23;20593;-90
2023/08/24 05:47:14;;;;;;;25.55;9.70;;;;;;;;;;6209825;23;20210;-91
2023/08/24 05:50:19;;;;;;;17.20;9.48;;;;;;;;;;6213109;23;20657;-89
2023/08/24 05:53:24;;;;;;;18.02;9.98;;;;;;;;;;6211276;23;20237;-85
2023/08/24 05:56:31;;;;;;;16.45;9.15;;;;;;;;;;6209849;23;20194;-89
2023/08/24 05:59:35;;;;;;;17.08;9.77;;;;;;;;;;6211370;23;20163;-89
2023/08/24 06:02:41;;;;;;;13.45;8.52;;;;;;;;;;6212853;23;20187;-90
2023/08/24 06:05:46;;;;;;;18.83;8.55;;;;;;;;;;6212231;23;20175;-89
2023/08/24 06:08:55;;;;;;;17.13;8.25;;;;;;;;;;6211046;23;20264;-89
2023/08/24 06:12:02;;;;;;;14.82;8.95;;;;;;;;;;6210541;23;20162;-89
2023/08/24 06:15:12;;;;;;;13.18;8.57;;;;;;;;;;6212511;23;20195;-89
2023/08/24 06:18:17;;;;;;;12.23;8.48;;;;;;;;;;6212418;23;20175;-90
2023/08/24 06:21:23;;;;;;;15.85;8.88;;;;;;;;;;6209370;23;20163;-87
2023/08/24 06:24:29;;;;;;;14.43;9.18;;;;;;;;;;6209790;23;20155;-90
2023/08/24 06:27:35;;;;;;;13.32;8.35;;;;;;;;;;6208610;23;20226;-87
2023/08/24 06:30:40;;;;;;;14.15;8.57;;;;;;;;;;6212632;23;20163;-89
2023/08/24 06:33:45;;;;;;;15.68;7.88;;;;;;;;;;6214192;23;20171;-91
2023/08/24 06:36:52;;;;;;;13.25;8.05;;;;;;;;;;6209369;23;20211;-92
2023/08/24 06:39:57;;;;;;;11.98;7.75;;;;;;;;;;6211212;23;20171;-90
2023/08/24 06:43:04;;;;;;;11.95;7.07;;;;;;;;;;6210727;23;20163;-90
2023/08/24 06:46:09;;;;;;;11.82;8.00;;;;;;;;;;6210099;23;20163;-90
2023/08/24 06:49:15;;;;;;;16.40;7.20;;;;;;;;;;6212877;23;20170;-90
2023/08/24 06:52:25;;;;;;;11.40;7.60;;;;;;;;;;6213265;23;20251;-89
2023/08/24 06:55:31;;;;;;;11.38;7.32;;;;;;;;;;6193975;23;20761;-90
2023/08/24 06:58:38;;;;;;;14.35;7.38;;;;;;;;;;6211735;23;20167;-89
2023/08/24 07:01:43;;;;;;;12.07;7.72;;;;;;;;;;6214214;23;20618;-90
2023/08/24 07:04:53;;;;;;;12.43;7.82;;;;;;;;;;6212589;23;20171;-90
2023/08/24 07:07:58;;;;;;;15.85;7.95;;;;;;;;;;6213100;23;20653;-88
2023/08/24 07:11:03;;;;;;;15.55;6.80;;;;;;;;;;6209007;23;20227;-88
2023/08/24 07:14:10;;;;;;;12.52;6.80;;;;;;;;;;6210171;23;20183;-92
2023/08/24 07:17:15;;;;;;;11.90;7.05;;;;;;;;;;6209469;23;20190;-90
2023/08/24 07:20:20;;;;;;;17.65;6.82;;;;;;;;;;6212624;23;20147;-89
2023/08/24 07:23:25;;;;;;;10.55;6.45;;;;;;;;;;6213176;23;20190;-91
2023/08/24 07:26:38;;;;;;;13.70;6.25;;;;;;;;;;6218528;23;20614;-90
2023/08/24 07:29:47;;;;;;;13.73;6.35;;;;;;;;;;6214511;23;20243;-89
2023/08/24 07:32:53;;;;;;;11.18;6.20;;;;;;;;;;6211881;23;20214;-91
2023/08/24 07:35:58;;;;;;;12.02;6.50;;;;;;;;;;6211571;23;20226;-89
2023/08/24 07:39:03;;;;;;;11.05;5.35;;;;;;;;;;6213210;23;20239;-91
2023/08/24 07:42:08;;;;;;;12.05;5.13;;;;;;;;;;6223745;23;20183;-93
2023/08/24 07:45:15;;;;;;;11.93;5.90;;;;;;;;;;6209482;23;20167;-90
2023/08/24 07:48:21;;;;;;;10.77;5.60;;;;;;;;;;6213040;23;20179;-91
2023/08/24 07:51:26;;;;;;;11.15;5.90;;;;;;;;;;6211500;23;20174;-90
2023/08/24 07:54:32;;;;;;;10.25;5.40;;;;;;;;;;6216099;23;20167;-93
2023/08/24 07:57:38;;;;;;;14.05;5.85;;;;;;;;;;6211201;23;20276;-92
2023/08/24 08:00:46;;;;;;;9.10;5.40;;;;;;;;;;6210953;23;20163;-89
2023/08/24 08:03:51;;;;;;;10.68;5.07;;;;;;;;;;6213294;23;20162;-89
2023/08/24 08:06:56;;;;;;;7.30;5.25;;;;;;;;;;6211197;23;20171;-89
2023/08/24 08:10:01;;;;;;;10.73;5.28;;;;;;;;;;6211749;23;20202;-91
2023/08/24 08:13:08;;;;;;;11.38;5.65;;;;;;;;;;6209955;23;20207;-93
2023/08/24 08:16:15;;;;;;;9.00;5.53;;;;;;;;;;6211776;23;20189;-89
2023/08/24 08:19:21;;;;;;;8.73;4.78;;;;;;;;;;6212167;23;20166;-89
2023/08/24 08:22:27;;;;;;;11.25;4.70;;;;;;;;;;6210897;23;20162;-90
2023/08/24 08:25:32;;;;;;;10.63;4.43;;;;;;;;;;6213809;23;20170;-91
2023/08/24 08:28:38;;;;;;;14.95;4.55;;;;;;;;;;6213098;23;20181;-89
2023/08/24 08:31:44;;;;;;;7.07;4.22;;;;;;;;;;6211490;23;20213;-89
2023/08/24 08:34:56;;;;;;;9.85;4.95;;;;;;;;;;6212275;23;20497;-92
2023/08/24 08:38:02;;;;;;;8.60;4.50;;;;;;;;;;6212525;23;20154;-90
2023/08/24 08:41:07;;;;;;;6.57;4.15;;;;;;;;;;6209313;23;20146;-91
2023/08/24 08:44:14;;;;;;;8.23;3.97;;;;;;;;;;6212418;23;20234;-92
2023/08/24 08:47:21;;;;;;;11.55;4.03;;;;;;;;;;6208759;23;20497;-91
2023/08/24 08:50:26;;;;;;;10.82;4.30;;;;;;;;;;6227027;23;20274;-92
2023/08/24 08:53:31;;;;;;;9.05;3.35;;;;;;;;;;6208552;23;20149;-90
2023/08/24 08:56:37;;;;;;;6.38;3.08;;;;;;;;;;6211579;23;20230;-91
2023/08/24 08:59:42;;;;;;;8.48;3.50;;;;;;;;;;6210337;23;20171;-91
2023/08/24 09:02:50;;;;;;;8.98;3.78;;;;;;;;;;6210674;23;20217;-90
2023/08/24 09:05:55;;;;;;;4.88;3.60;;;;;;;;;;6209128;23;20255;-87
2023/08/24 09:09:01;;;;;;;7.07;3.75;;;;;;;;;;6208760;23;20150;-90
2023/08/24 09:12:07;;;;;;;9.05;3.80;;;;;;;;;;6208125;23;20163;-92
2023/08/24 09:15:13;;;;;;;9.65;3.60;;;;;;;;;;6208410;23;20167;-90
2023/08/24 09:18:20;;;;;;;8.50;4.30;;;;;;;;;;6208940;23;20169;-92
2023/08/24 09:21:25;;;;;;;10.95;4.20;;;;;;;;;;6214754;23;20211;-90
2023/08/24 09:24:32;;;;;;;10.52;4.20;;;;;;;;;;6217783;23;20167;-90
2023/08/24 09:27:38;;;;;;;7.88;3.60;;;;;;;;;;6218312;23;20163;-91
2023/08/24 09:30:46;;;;;;;7.53;4.03;;;;;;;;;;6217801;23;20213;-91
2023/08/24 09:34:02;;;;;;;6.68;3.90;;;;;;;;;;6217811;23;20226;-89
2023/08/24 09:37:14;;;;;;;6.22;3.80;;;;;;;;;;6231595;23;20265;-92
2023/08/24 09:40:25;;;;;;;6.32;3.25;;;;;;;;;;6233024;23;20182;-91
2023/08/24 09:43:32;;;;;;;7.75;2.95;;;;;;;;;;6226948;23;20158;-90
2023/08/24 09:46:38;;;;;;;13.90;3.30;;;;;;;;;;6227342;23;20210;-92
2023/08/24 09:49:44;;;;;;;8.80;3.45;;;;;;;;;;6225686;23;20162;-91
2023/08/24 09:52:53;;;;;;;15.98;2.95;;;;;;;;;;6226840;22;20259;-90
2023/08/24 09:56:00;;;;;;;4.97;2.65;;;;;;;;;;6226829;23;20162;-90
2023/08/24 09:59:11;;;;;;;9.05;2.60;;;;;;;;;;6230295;22;20165;-92
2023/08/24 10:02:22;;;;;;;7.78;2.78;;;;;;;;;;6233576;23;20229;-91
2023/08/24 10:05:29;;;;;;;7.43;2.97;;;;;;;;;;6234585;23;20186;-92
2023/08/24 10:08:36;;;;;;;4.55;2.70;;;;;;;;;;6233358;23;20170;-89
2023/08/24 10:11:44;;;;;;;7.40;2.50;;;;;;;;;;6233197;23;20162;-92
2023/08/24 10:14:54;;;;;;;6.60;2.70;;;;;;;;;;6233760;23;20171;-90
2023/08/24 10:18:00;;;;;;;6.40;3.05;;;;;;;;;;6234012;22;20197;-91
2023/08/24 10:21:07;;;;;;;7.47;2.58;;;;;;;;;;6234658;23;20166;-91
2023/08/24 10:24:13;;;;;;;9.25;2.63;;;;;;;;;;6234600;23;20170;-89
2023/08/24 10:27:18;;;;;;;7.70;2.67;;;;;;;;;;6233868;23;20170;-90
2023/08/24 10:30:23;;;;;;;6.72;2.63;;;;;;;;;;6233259;23;20206;-91
2023/08/24 10:33:31;;;;;;;12.10;2.85;;;;;;;;;;6235117;23;20182;-90
2023/08/24 10:36:39;;;;;;;6.72;2.88;;;;;;;;;;6224205;23;20246;-91
2023/08/24 10:39:46;;;;;;;4.95;2.72;;;;;;;;;;6215809;23;20175;-91
2023/08/24 10:42:51;;;;;;;4.57;2.70;;;;;;;;;;6216513;23;20206;-92
2023/08/24 10:45:58;;;;;;;7.88;2.80;;;;;;;;;;6216239;23;20219;-90
2023/08/24 10:49:05;;;;;;;5.60;2.80;;;;;;;;;;6215628;23;20157;-90
2023/08/24 10:52:20;;;;;;;6.45;2.75;;;;;;;;;;6215265;23;20210;-91
2023/08/24 10:55:29;;;;;;;7.03;2.67;;;;;;;;;;6217059;23;20165;-90
2023/08/24 10:58:35;;;;;;;9.57;2.90;;;;;;;;;;6216012;23;20219;-90
2023/08/24 11:01:41;;;;;;;5.25;2.85;;;;;;;;;;6216621;23;20186;-89
2023/08/24 11:05:01;;;;;;;7.70;3.28;;;;;;;;;;6218328;23;20171;-91
2023/08/24 11:08:11;;;;;;;11.73;3.00;;;;;;;;;;6217716;23;20673;-92
2023/08/24 11:11:24;;;;;;;7.13;2.90;;;;;;;;;;6217063;23;20303;-88
2023/08/24 11:14:31;;;;;;;7.20;2.80;;;;;;;;;;6235206;23;20163;-90
2023/08/24 11:17:36;;;;;;;6.38;3.03;;;;;;;;;;6216821;23;20214;-90
2023/08/24 11:20:43;;;;;;;11.75;3.25;;;;;;;;;;6216489;23;20209;-90
2023/08/24 11:23:50;;;;;;;7.63;3.00;;;;;;;;;;6216691;23;20208;-90
2023/08/24 11:26:55;;;;;;;5.22;2.80;;;;;;;;;;6214898;23;20173;-88
2023/08/24 11:30:01;;;;;;;7.93;3.20;;;;;;;;;;6215782;23;20170;-90
2023/08/24 11:36:25;;;;;;;6.43;3.40;;;;;;;;;;6215521;23;20191;-91
2023/08/24 11:39:32;;;;;;;5.80;3.10;;;;;;;;;;6214538;23;20210;-90
2023/08/24 11:42:38;;;;;;;10.23;3.22;;;;;;;;;;6213317;23;20162;-92
2023/08/24 11:45:43;;;;;;;5.82;2.85;;;;;;;;;;6215409;23;20198;-92
2023/08/24 11:48:48;;;;;;;6.22;3.22;;;;;;;;;;6217940;23;20175;-92
2023/08/24 11:51:57;;;;;;;4.85;3.08;;;;;;;;;;6218580;23;20425;-93
2023/08/24 11:55:04;;;;;;;5.47;3.13;;;;;;;;;;6236980;22;20171;-93
2023/08/24 11:58:16;;;;;;;7.60;3.40;;;;;;;;;;6235962;23;20242;-92
2023/08/24 12:01:22;;;;;;;8.57;3.30;;;;;;;;;;6237331;23;20159;-93
2023/08/24 12:04:28;;;;;;;6.15;2.90;;;;;;;;;;6218089;23;20170;-93
2023/08/24 13:50:14;;;;;;;8.70;3.70;;;;;;;;;;6223223;22;20211;-93
2023/08/24 13:53:19;;;;;;;5.43;3.80;;;;;;;;;;6218127;23;20167;-90
2023/08/24 13:56:24;;;;;;;5.70;3.40;;;;;;;;;;6216612;23;20162;-91
2023/08/24 13:59:30;;;;;;;7.15;3.53;;;;;;;;;;6216279;23;20198;-90
2023/08/24 14:02:35;;;;;;;5.00;3.47;;;;;;;;;;6213389;23;20220;-92
2023/08/24 14:05:42;;;;;;;6.15;3.70;;;;;;;;;;6211953;23;20166;-93
2023/08/24 14:08:47;;;;;;;9.75;3.90;;;;;;;;;;6229580;23;20513;-90
2023/08/24 14:11:53;;;;;;;8.55;3.85;;;;;;;;;;6212975;23;20170;-91
2023/08/24 14:14:58;;;;;;;10.23;3.95;;;;;;;;;;6212845;23;20246;-91
2023/08/24 14:18:03;;;;;;;11.38;3.58;;;;;;;;;;6229984;23;20238;-92
2023/08/24 14:21:11;;;;;;;9.32;3.83;;;;;;;;;;6214821;23;20226;-89
2023/08/24 14:24:16;;;;;;;7.30;3.90;;;;;;;;;;6212828;23;20494;-89
2023/08/24 14:27:21;;;;;;;7.43;3.85;;;;;;;;;;6213013;23;20178;-89
2023/08/24 14:30:27;;;;;;;9.75;4.03;;;;;;;;;;6214959;23;20174;-91
2023/08/24 14:33:32;;;;;;;9.15;4.00;;;;;;;;;;6211280;23;20496;-89
2023/08/24 14:36:39;;;;;;;6.15;3.80;;;;;;;;;;6212584;23;20158;-93
2023/08/24 14:39:44;;;;;;;9.80;4.63;;;;;;;;;;6211476;23;20170;-88
2023/08/24 14:46:11;;;;;;;4.80;3.53;;;;;;;;;;6218304;23;20178;-89
2023/08/24 14:49:18;;;;;;;15.77;3.42;;;;;;;;;;6212821;23;20547;-90
2023/08/24 14:52:25;;;;;;;6.32;2.95;;;;;;;;;;6214213;23;20191;-91
2023/08/24 14:55:30;;;;;;;8.60;3.20;;;;;;;;;;6211545;23;20170;-88
2023/08/24 14:58:35;;;;;;;5.57;3.30;;;;;;;;;;6212113;23;20198;-92
2023/08/24 15:01:40;;;;;;;9.60;3.45;;;;;;;;;;6211688;23;20161;-89
2023/08/24 15:04:45;;;;;;;6.30;2.75;;;;;;;;;;6211162;23;20175;-89
2023/08/24 15:07:52;;;;;;;9.13;3.70;;;;;;;;;;6209669;23;20194;-90
2023/08/24 15:10:58;;;;;;;7.82;3.50;;;;;;;;;;6212784;23;20210;-88
2023/08/24 15:14:03;;;;;;;11.10;3.45;;;;;;;;;;6218059;23;20171;-91
2023/08/24 15:17:08;;;;;;;6.70;3.22;;;;;;;;;;6218871;23;20258;-89
2023/08/24 15:20:14;;;;;;;8.57;3.35;;;;;;;;;;6216827;23;20228;-91
2023/08/24 15:23:26;;;;;;;10.70;3.83;;;;;;;;;;6217906;23;20175;-91
2023/08/24 15:26:32;;;;;;;10.80;3.63;;;;;;;;;;6216875;23;20233;-86
2023/08/24 15:29:38;;;;;;;9.88;3.88;;;;;;;;;;6219713;23;20150;-91
2023/08/24 15:32:43;;;;;;;7.95;3.13;;;;;;;;;;6218697;23;20161;-91
2023/08/24 15:35:53;;;;;;;11.27;3.58;;;;;;;;;;6217579;23;20171;-89
2023/08/24 15:39:00;;;;;;;8.45;3.22;;;;;;;;;;6216368;23;20280;-88
2023/08/24 15:42:05;;;;;;;12.98;3.45;;;;;;;;;;6211691;23;20163;-88
2023/08/24 15:45:11;;;;;;;21.08;5.25;;;;;;;;;;6212613;23;20150;-88
2023/08/24 15:48:16;;;;;;;14.38;3.65;;;;;;;;;;6212500;23;20162;-90
2023/08/24 15:51:21;;;;;;;14.68;3.42;;;;;;;;;;6211125;23;20261;-88
2023/08/24 15:54:28;;;;;;;12.40;3.38;;;;;;;;;;6211843;23;20209;-90
2023/08/24 15:57:33;;;;;;;10.50;4.30;;;;;;;;;;6212434;23;20521;-89
2023/08/24 16:00:38;;;;;;;11.38;3.58;;;;;;;;;;6229369;23;20166;-91
2023/08/24 16:03:43;;;;;;;9.93;3.50;;;;;;;;;;6211949;23;20236;-89
2023/08/24 16:06:48;;;;;;;9.00;3.60;;;;;;;;;;6229731;23;20158;-88
2023/08/24 16:09:55;;;;;;;15.43;3.90;;;;;;;;;;6211593;23;20154;-89
2023/08/24 16:13:00;;;;;;;11.13;3.90;;;;;;;;;;6230436;23;20166;-88
2023/08/24 16:16:05;;;;;;;8.57;4.03;;;;;;;;;;6209420;23;20206;-88
2023/08/24 16:19:13;;;;;;;12.93;3.45;;;;;;;;;;6210841;23;20269;-88
2023/08/24 16:22:20;;;;;;;9.68;3.72;;;;;;;;;;6213232;23;20157;-90
2023/08/24 16:25:27;;;;;;;9.63;3.60;;;;;;;;;;6219161;23;20155;-90
2023/08/24 16:28:32;;;;;;;12.10;3.70;;;;;;;;;;6217876;23;20183;-89
2023/08/24 16:31:37;;;;;;;14.25;3.92;;;;;;;;;;6218088;23;20231;-90
2023/08/24 16:34:43;;;;;;;14.13;3.42;;;;;;;;;;6217351;23;20174;-91
2023/08/24 16:37:48;;;;;;;12.60;3.38;;;;;;;;;;6217665;23;20203;-88
2023/08/24 16:40:55;;;;;;;14.20;4.60;;;;;;;;;;6233822;23;20174;-89
2023/08/24 16:44:00;;;;;;;11.60;4.22;;;;;;;;;;6219112;23;20154;-89
2023/08/24 16:47:06;;;;;;;14.68;4.65;;;;;;;;;;6214544;23;20615;-88
2023/08/24 16:50:14;;;;;;;16.38;4.13;;;;;;;;;;6215351;23;20194;-87
2023/08/24 16:53:19;;;;;;;11.50;4.15;;;;;;;;;;6214664;23;20167;-87
2023/08/24 16:56:25;;;;;;;12.35;4.93;;;;;;;;;;6216719;23;20175;-88
2023/08/24 16:59:31;;;;;;;10.30;4.78;;;;;;;;;;6215365;23;20195;-91
2023/08/24 17:02:36;;;;;;;18.50;3.90;;;;;;;;;;6216663;23;20174;-90
2023/08/24 17:05:41;;;;;;;11.15;3.90;;;;;;;;;;6216934;23;20492;-87
2023/08/24 17:08:47;;;;;;;11.48;4.55;;;;;;;;;;6215206;23;20170;-90
2023/08/24 17:11:54;;;;;;;14.52;5.00;;;;;;;;;;6233747;23;20192;-88
2023/08/24 17:14:59;;;;;;;19.48;4.38;;;;;;;;;;6217377;23;20219;-89
2023/08/24 17:18:05;;;;;;;17.75;6.93;;;;;;;;;;6215482;23;20238;-90
2023/08/24 17:21:10;;;;;;;15.88;5.93;;;;;;;;;;6216090;23;20167;-89
2023/08/24 17:24:15;;;;;;;15.95;4.65;;;;;;;;;;6215870;23;20163;-87
2023/08/24 17:27:22;;;;;;;15.43;4.35;;;;;;;;;;6215222;23;20188;-87
2023/08/24 17:30:26;;;;;;;17.13;4.57;;;;;;;;;;6228745;23;20179;-90
2023/08/24 17:33:32;;;;;;;15.98;4.90;;;;;;;;;;6211359;23;20199;-92
2023/08/24 17:36:37;;;;;;;14.93;4.82;;;;;;;;;;6209263;23;20167;-88
2023/08/24 17:39:43;;;;;;;11.43;4.55;;;;;;;;;;6207755;23;20195;-89
2023/08/24 17:42:49;;;;;;;16.35;4.30;;;;;;;;;;6209318;23;20163;-89
2023/08/24 17:45:54;;;;;;;12.55;5.05;;;;;;;;;;6230879;23;20163;-87
2023/08/24 17:48:59;;;;;;;9.60;4.82;;;;;;;;;;6211485;23;20250;-90
2023/08/24 17:52:05;;;;;;;13.93;4.50;;;;;;;;;;6212080;23;20170;-90
2023/08/24 17:55:11;;;;;;;12.88;5.57;;;;;;;;;;6212370;23;20179;-89
2023/08/24 17:58:17;;;;;;;20.27;4.90;;;;;;;;;;6211967;23;20198;-90
2023/08/24 18:01:22;;;;;;;14.30;5.50;;;;;;;;;;6210954;23;20167;-90
2023/08/24 18:04:27;;;;;;;11.55;5.38;;;;;;;;;;6213196;23;20167;-89
2023/08/24 18:07:32;;;;;;;16.38;6.32;;;;;;;;;;6218299;23;20150;-90
2023/08/24 18:10:38;;;;;;;12.57;5.25;;;;;;;;;;6217192;23;20171;-88
2023/08/24 18:13:46;;;;;;;12.38;5.00;;;;;;;;;;6218285;23;20174;-90
2023/08/24 18:16:51;;;;;;;14.65;5.55;;;;;;;;;;6218383;23;20171;-90
2023/08/24 18:19:57;;;;;;;16.83;5.97;;;;;;;;;;6218153;23;20251;-89
2023/08/24 18:23:03;;;;;;;12.30;5.95;;;;;;;;;;6238279;23;20171;-91
2023/08/24 18:26:17;;;;;;;16.17;6.53;;;;;;;;;;6217778;23;20170;-90
2023/08/24 18:29:25;;;;;;;16.85;6.30;;;;;;;;;;6216921;23;20167;-87
2023/08/24 18:32:30;;;;;;;15.07;5.78;;;;;;;;;;6216418;23;20171;-92
2023/08/24 18:35:37;;;;;;;12.13;5.78;;;;;;;;;;6216129;23;20167;-90
2023/08/24 18:38:42;;;;;;;16.10;5.88;;;;;;;;;;6215468;23;20243;-90
2023/08/24 18:41:49;;;;;;;15.93;5.63;;;;;;;;;;6217410;23;20159;-90
2023/08/24 18:44:56;;;;;;;13.35;5.97;;;;;;;;;;6216572;23;20171;-90
2023/08/24 18:48:01;;;;;;;12.60;5.97;;;;;;;;;;6217274;23;20163;-88
2023/08/24 18:51:09;;;;;;;16.50;6.10;;;;;;;;;;6215658;23;20170;-89
2023/08/24 18:54:14;;;;;;;16.33;5.70;;;;;;;;;;6219699;23;20210;-89
2023/08/24 18:57:19;;;;;;;26.40;6.35;;;;;;;;;;6213438;22;20167;-92
2023/08/24 19:00:26;;;;;;;14.10;5.88;;;;;;;;;;6212799;22;20154;-89
2023/08/24 19:03:42;;;;;;;10.82;5.22;;;;;;;;;;6212514;22;20163;-88
2023/08/24 19:06:48;;;;;;;12.32;5.75;;;;;;;;;;6213774;23;20243;-88
2023/08/24 19:09:53;;;;;;;17.48;5.63;;;;;;;;;;6217887;23;20216;-91
2023/08/24 19:12:59;;;;;;;13.82;5.60;;;;;;;;;;6217799;22;20163;-90
2023/08/24 19:16:06;;;;;;;14.95;5.80;;;;;;;;;;6216121;22;20151;-91
2023/08/24 19:19:12;;;;;;;13.20;5.70;;;;;;;;;;6216356;22;20203;-89
2023/08/24 19:22:18;;;;;;;12.52;6.25;;;;;;;;;;6216565;23;20214;-90
2023/08/24 19:25:23;;;;;;;12.00;6.18;;;;;;;;;;6217633;22;20178;-91
2023/08/24 19:28:28;;;;;;;16.60;6.72;;;;;;;;;;6216374;22;20167;-88
2023/08/24 19:31:35;;;;;;;13.55;5.72;;;;;;;;;;6217082;23;20159;-89
2023/08/24 19:34:41;;;;;;;14.68;7.22;;;;;;;;;;6217412;23;20203;-88
2023/08/24 19:37:46;;;;;;;21.20;8.02;;;;;;;;;;6219864;23;20163;-90
2023/08/24 19:40:51;;;;;;;13.40;6.80;;;;;;;;;;6217362;22;20214;-90
2023/08/24 19:43:58;;;;;;;16.33;6.78;;;;;;;;;;6218114;22;20163;-89
2023/08/24 19:47:08;;;;;;;13.40;6.97;;;;;;;;;;6218124;22;20506;-88
2023/08/24 19:50:17;;;;;;;15.32;7.88;;;;;;;;;;6216518;23;20238;-89
2023/08/24 19:53:23;;;;;;;13.32;6.82;;;;;;;;;;6217690;23;20175;-88
2023/08/24 19:56:28;;;;;;;16.75;7.43;;;;;;;;;;6216668;23;20162;-91
2023/08/24 19:59:33;;;;;;;15.52;7.70;;;;;;;;;;6216911;23;20198;-91
2023/08/24 20:02:41;;;;;;;16.38;7.97;;;;;;;;;;6234412;22;20218;-90
2023/08/24 20:05:48;;;;;;;17.67;8.15;;;;;;;;;;6216935;23;20175;-89
2023/08/24 20:08:54;;;;;;;18.40;7.95;;;;;;;;;;6217458;23;20501;-89
2023/08/24 20:12:00;;;;;;;20.73;7.90;;;;;;;;;;6217001;23;20188;-88
2023/08/24 20:15:08;;;;;;;21.17;9.13;;;;;;;;;;6218014;23;20183;-90
2023/08/24 20:18:15;;;;;;;19.40;8.60;;;;;;;;;;6218220;23;20170;-89
2023/08/24 20:21:21;;;;;;;16.50;7.85;;;;;;;;;;6217948;23;20506;-88